Carrollton, Louisiana
Current Conditions -  °F | °C
As of 4:35 AM on Sunday 21 Dec 2014 (Local Time) from KVSH Reporting Station
Overcast Overcast  
Wind Chill: 52°   Ceiling: 1000
Heat Index: 52°   Visibility: 10mi
Dew Point: 45°   Wind: 5mph
Humidity: 76%   Direction: 20°NNE
Pressure: 30.11"   Gusts: NA
Location:  29.9472°N, 90.1244°W
Report Text: KVSH 211035Z AUTO 02004KT 10SM OVC010 11/07 A3011 RMK AO1
Loading
Personal Weather Stations






























Interactive Weather Map New forecast layout! Learn more

10-Day Weather Forecast

Advertisements
Track Severe Weather on mobile